Time;durP1;ratioP1;P1;durP2;ratioP2;P2;SDS_P1;SDS_P2;PMS_P1;PMS_P2;Temp;Humidity;BMP_temperature;BMP_pressure;BME280_temperature;BME280_humidity;BME280_pressure;Samples;Min_cycle;Max_cycle;Signal;HPM_P1;HPM_P2
2022/06/16 00:01:39;;;;;;;10.02;9.00;;;;;;;;;;5010814;28;20022;-71
2022/06/16 00:04:04;;;;;;;9.30;8.50;;;;;;;;;;5009550;28;20040;-71
2022/06/16 00:06:30;;;;;;;9.90;8.90;;;;;;;;;;5016230;28;20042;-71
2022/06/16 00:08:56;;;;;;;9.98;9.07;;;;;;;;;;5010078;28;20052;-71
2022/06/16 00:11:21;;;;;;;10.32;9.23;;;;;;;;;;5010668;28;20040;-71
2022/06/16 00:13:49;;;;;;;12.63;9.13;;;;;;;;;;5010445;28;20039;-71
2022/06/16 00:16:15;;;;;;;10.80;9.40;;;;;;;;;;5018509;28;20131;-71
2022/06/16 00:18:41;;;;;;;10.60;9.25;;;;;;;;;;5008374;28;20052;-71
2022/06/16 00:21:07;;;;;;;9.98;9.00;;;;;;;;;;5007973;28;20033;-71
2022/06/16 00:23:34;;;;;;;10.98;9.77;;;;;;;;;;5006905;28;20036;-71
2022/06/16 00:25:59;;;;;;;10.77;8.93;;;;;;;;;;5013874;28;20046;-71
2022/06/16 00:28:25;;;;;;;10.40;9.18;;;;;;;;;;5008293;28;20452;-71
2022/06/16 00:31:00;;;;;;;10.77;9.75;;;;;;;;;;5020403;28;20128;-71
2022/06/16 00:33:26;;;;;;;11.32;9.68;;;;;;;;;;5012823;28;20030;-71
2022/06/16 00:35:51;;;;;;;10.68;9.52;;;;;;;;;;5011043;28;20095;-71
2022/06/16 00:38:17;;;;;;;10.15;9.20;;;;;;;;;;5007895;28;20033;-71
2022/06/16 00:40:42;;;;;;;12.10;9.57;;;;;;;;;;5008643;28;20083;-71
2022/06/16 00:43:09;;;;;;;10.40;9.02;;;;;;;;;;5011133;28;20132;-71
2022/06/16 00:45:55;;;;;;;10.50;9.60;;;;;;;;;;5007787;28;20037;-71
2022/06/16 00:48:39;;;;;;;12.18;9.40;;;;;;;;;;5007619;28;20042;-71
2022/06/16 00:51:18;;;;;;;10.90;9.82;;;;;;;;;;5010878;28;20030;-71
2022/06/16 00:53:45;;;;;;;10.10;9.20;;;;;;;;;;5005893;28;20044;-71
2022/06/16 00:56:16;;;;;;;10.63;9.55;;;;;;;;;;5006212;28;20409;-71
2022/06/16 00:58:45;;;;;;;10.48;9.48;;;;;;;;;;5007860;28;20033;-71
2022/06/16 01:01:13;;;;;;;9.68;8.77;;;;;;;;;;5012859;28;20108;-71
2022/06/16 01:06:26;;;;;;;11.25;9.18;;;;;;;;;;5006745;28;20041;-71
2022/06/16 01:09:13;;;;;;;10.18;9.27;;;;;;;;;;4998198;28;20038;-71
2022/06/16 01:14:53;;;;;;;10.20;9.30;;;;;;;;;;5004082;28;20053;-71
2022/06/16 01:17:40;;;;;;;10.68;9.27;;;;;;;;;;5011472;28;20560;-71
2022/06/16 01:20:08;;;;;;;10.70;9.50;;;;;;;;;;5006136;28;20080;-71
2022/06/16 01:22:48;;;;;;;14.75;11.40;;;;;;;;;;5020462;28;20441;-71
2022/06/16 01:25:23;;;;;;;14.60;9.68;;;;;;;;;;5008177;28;20516;-71
2022/06/16 01:27:52;;;;;;;10.50;9.50;;;;;;;;;;5005947;28;20084;-71
2022/06/16 01:30:28;;;;;;;11.68;10.05;;;;;;;;;;4988694;28;20049;-70
2022/06/16 01:33:04;;;;;;;10.52;9.50;;;;;;;;;;5007243;28;20115;-71
2022/06/16 01:35:54;;;;;;;11.05;9.73;;;;;;;;;;5016854;28;20088;-71
2022/06/16 01:38:40;;;;;;;14.85;10.07;;;;;;;;;;5012404;28;20048;-71
2022/06/16 01:41:09;;;;;;;10.70;9.70;;;;;;;;;;5009999;28;20541;-71
2022/06/16 01:43:41;;;;;;;10.98;9.80;;;;;;;;;;5014640;28;20045;-71
2022/06/16 01:46:29;;;;;;;9.90;8.95;;;;;;;;;;5015240;28;20030;-71
2022/06/16 01:49:41;;;;;;;10.23;9.35;;;;;;;;;;5010742;28;20061;-71
2022/06/16 01:52:25;;;;;;;10.73;9.73;;;;;;;;;;5014945;28;20071;-71
2022/06/16 01:54:57;;;;;;;10.40;9.55;;;;;;;;;;5013814;28;20042;-72
2022/06/16 01:57:54;;;;;;;11.18;10.10;;;;;;;;;;5010613;28;20112;-72
2022/06/16 02:00:22;;;;;;;15.05;10.38;;;;;;;;;;4952285;28;20044;-71
2022/06/16 02:03:02;;;;;;;14.32;10.07;;;;;;;;;;4942909;28;20126;-71
2022/06/16 02:05:47;;;;;;;11.75;10.18;;;;;;;;;;4945864;28;20042;-71
2022/06/16 02:08:17;;;;;;;10.00;9.10;;;;;;;;;;4949413;28;20443;-71
2022/06/16 02:10:47;;;;;;;11.10;10.10;;;;;;;;;;4922297;28;20097;-71
2022/06/16 02:13:19;;;;;;;11.15;10.27;;;;;;;;;;4957280;28;20035;-71
2022/06/16 02:15:55;;;;;;;10.60;9.70;;;;;;;;;;4938325;28;20043;-71
2022/06/16 02:18:25;;;;;;;10.43;9.50;;;;;;;;;;4951220;28;20066;-71
2022/06/16 02:21:00;;;;;;;12.32;10.95;;;;;;;;;;4942780;28;20046;-71
2022/06/16 02:23:27;;;;;;;11.70;10.15;;;;;;;;;;4956998;28;20062;-72
2022/06/16 02:25:55;;;;;;;12.90;10.35;;;;;;;;;;4940882;28;20051;-72
2022/06/16 02:28:21;;;;;;;10.77;9.70;;;;;;;;;;4959352;28;20195;-71
2022/06/16 02:31:32;;;;;;;10.55;9.50;;;;;;;;;;4947344;28;20046;-71
2022/06/16 02:34:16;;;;;;;10.70;9.65;;;;;;;;;;4953964;28;20046;-71
2022/06/16 02:37:06;;;;;;;9.93;9.02;;;;;;;;;;4973148;28;20069;-71
2022/06/16 02:39:45;;;;;;;11.30;9.85;;;;;;;;;;5010250;28;20092;-71
2022/06/16 02:42:43;;;;;;;10.57;9.57;;;;;;;;;;5006389;28;20034;-71
2022/06/16 02:46:06;;;;;;;12.75;10.38;;;;;;;;;;5011378;28;20034;-72
2022/06/16 02:48:46;;;;;;;11.02;9.63;;;;;;;;;;5000898;28;20051;-72
2022/06/16 02:51:16;;;;;;;11.07;9.63;;;;;;;;;;4996064;28;20034;-71
2022/06/16 02:56:50;;;;;;;11.35;10.38;;;;;;;;;;4980717;28;20042;-71
2022/06/16 02:59:20;;;;;;;12.20;10.02;;;;;;;;;;4979588;28;20043;-71
2022/06/16 03:01:48;;;;;;;11.80;10.00;;;;;;;;;;4997018;28;20438;-71
2022/06/16 03:04:17;;;;;;;11.45;9.57;;;;;;;;;;4973722;28;20038;-71
2022/06/16 03:06:45;;;;;;;10.93;9.93;;;;;;;;;;4998382;28;20491;-71
2022/06/16 03:09:13;;;;;;;12.38;9.85;;;;;;;;;;4996194;28;20050;-71
2022/06/16 03:11:40;;;;;;;11.00;9.90;;;;;;;;;;4995529;28;21580;-72
2022/06/16 03:14:10;;;;;;;11.55;9.88;;;;;;;;;;4975180;28;20336;-71
2022/06/16 03:16:40;;;;;;;9.65;8.85;;;;;;;;;;4975921;28;20066;-72
2022/06/16 03:19:06;;;;;;;10.32;9.32;;;;;;;;;;4996055;28;20144;-71
2022/06/16 03:21:32;;;;;;;10.20;9.20;;;;;;;;;;4979841;28;20447;-71
2022/06/16 03:23:58;;;;;;;10.88;9.70;;;;;;;;;;5015953;28;20036;-71
2022/06/16 03:26:25;;;;;;;11.02;9.60;;;;;;;;;;5007384;28;20731;-71
2022/06/16 03:28:55;;;;;;;10.73;9.65;;;;;;;;;;5024314;28;20038;-70
2022/06/16 03:31:21;;;;;;;11.00;9.38;;;;;;;;;;5009470;28;20034;-71
2022/06/16 03:33:49;;;;;;;13.98;9.80;;;;;;;;;;5010894;28;20069;-71
2022/06/16 03:36:15;;;;;;;11.07;9.88;;;;;;;;;;5013426;28;20741;-71
2022/06/16 03:38:43;;;;;;;14.15;10.52;;;;;;;;;;5007889;28;20152;-71
2022/06/16 03:41:12;;;;;;;11.48;10.32;;;;;;;;;;5022365;28;20119;-70
2022/06/16 03:43:39;;;;;;;10.98;9.75;;;;;;;;;;5019865;28;20172;-71
2022/06/16 03:46:23;;;;;;;10.98;9.85;;;;;;;;;;5009570;28;20037;-71
2022/06/16 03:49:10;;;;;;;12.20;10.02;;;;;;;;;;5008834;28;20209;-71
2022/06/16 03:51:48;;;;;;;10.80;9.77;;;;;;;;;;5012089;28;20025;-71
2022/06/16 03:54:18;;;;;;;11.43;10.20;;;;;;;;;;4998162;28;20041;-71
2022/06/16 03:56:45;;;;;;;11.65;10.55;;;;;;;;;;5016210;28;20025;-71
2022/06/16 03:59:15;;;;;;;10.80;9.70;;;;;;;;;;5013597;28;20041;-70
2022/06/16 04:01:41;;;;;;;10.02;9.13;;;;;;;;;;5007439;28;20115;-70
2022/06/16 04:04:08;;;;;;;9.93;8.93;;;;;;;;;;5014185;28;20963;-70
2022/06/16 04:06:45;;;;;;;10.30;9.05;;;;;;;;;;5016568;28;20195;-70
2022/06/16 04:09:12;;;;;;;9.77;8.90;;;;;;;;;;5023943;28;20033;-70
2022/06/16 04:11:38;;;;;;;10.07;8.57;;;;;;;;;;5004490;28;20144;-70
2022/06/16 04:14:10;;;;;;;9.73;8.80;;;;;;;;;;5010752;28;20034;-70
2022/06/16 04:16:53;;;;;;;9.10;8.32;;;;;;;;;;4995452;28;20068;-70
2022/06/16 04:20:11;;;;;;;10.85;9.07;;;;;;;;;;4992460;28;20148;-70
2022/06/16 04:22:21;;;;;;;11.40;8.52;;;;;;;;;;5009232;28;20037;-72
2022/06/16 04:24:57;;;;;;;9.50;8.60;;;;;;;;;;5007280;28;20053;-69
2022/06/16 04:27:22;;;;;;;9.63;8.50;;;;;;;;;;5004627;28;20026;-69
2022/06/16 04:29:50;;;;;;;9.80;9.00;;;;;;;;;;5010547;28;20058;-71
2022/06/16 04:32:16;;;;;;;9.43;8.63;;;;;;;;;;5010272;28;20382;-70
2022/06/16 04:34:45;;;;;;;;;;;;;;;;;;5007187;28;20478;-70
2022/06/16 04:37:12;;;;;;;11.18;9.00;;;;;;;;;;5006412;28;20336;-71
2022/06/16 04:39:38;;;;;;;10.90;8.73;;;;;;;;;;5012876;28;20057;-71
2022/06/16 04:42:04;;;;;;;10.43;8.63;;;;;;;;;;5006749;28;20673;-71
2022/06/16 04:44:33;;;;;;;9.13;8.35;;;;;;;;;;5007287;28;20037;-70
2022/06/16 04:47:02;;;;;;;9.38;8.48;;;;;;;;;;5028751;28;20429;-71
2022/06/16 04:49:29;;;;;;;9.30;8.40;;;;;;;;;;5022147;28;20037;-71
2022/06/16 04:51:55;;;;;;;9.52;8.43;;;;;;;;;;5004495;28;20397;-70
2022/06/16 04:54:24;;;;;;;8.93;8.13;;;;;;;;;;5020150;28;20026;-71
2022/06/16 04:57:19;;;;;;;9.20;8.27;;;;;;;;;;4998420;28;20057;-70
2022/06/16 05:00:15;;;;;;;9.25;8.43;;;;;;;;;;5003374;28;20104;-70
2022/06/16 05:02:56;;;;;;;11.18;8.73;;;;;;;;;;5013069;28;20555;-70
2022/06/16 05:05:41;;;;;;;9.60;8.70;;;;;;;;;;5004757;28;20037;-71
2022/06/16 05:08:25;;;;;;;8.63;7.93;;;;;;;;;;5010109;28;20040;-71
2022/06/16 05:11:07;;;;;;;9.57;8.60;;;;;;;;;;5010230;28;20033;-70
2022/06/16 05:13:51;;;;;;;8.65;7.80;;;;;;;;;;5011440;28;20546;-71
2022/06/16 05:16:24;;;;;;;9.55;8.52;;;;;;;;;;5017159;28;20506;-70
2022/06/16 05:19:08;;;;;;;9.65;8.85;;;;;;;;;;5010553;28;20025;-71
2022/06/16 05:21:41;;;;;;;9.32;8.35;;;;;;;;;;5012675;28;20073;-71
2022/06/16 05:24:30;;;;;;;9.38;8.50;;;;;;;;;;4996960;28;20880;-71
2022/06/16 05:27:15;;;;;;;9.98;8.00;;;;;;;;;;5007102;28;20448;-69
2022/06/16 05:30:02;;;;;;;8.60;7.88;;;;;;;;;;5016598;28;20073;-70
2022/06/16 05:32:48;;;;;;;12.35;8.13;;;;;;;;;;5007398;28;20436;-70
2022/06/16 05:35:56;;;;;;;8.98;7.97;;;;;;;;;;4985907;28;20046;-70
2022/06/16 05:38:52;;;;;;;8.50;7.80;;;;;;;;;;4969988;28;20098;-70
2022/06/16 05:41:30;;;;;;;8.50;7.80;;;;;;;;;;5009183;28;20089;-70
2022/06/16 05:44:15;;;;;;;9.40;7.60;;;;;;;;;;4996364;28;20045;-70
2022/06/16 05:47:01;;;;;;;9.40;8.50;;;;;;;;;;5013580;28;20042;-72
2022/06/16 05:49:33;;;;;;;10.02;8.13;;;;;;;;;;5007145;28;20041;-70
2022/06/16 05:52:09;;;;;;;8.75;7.95;;;;;;;;;;5008374;28;20053;-71
2022/06/16 05:54:35;;;;;;;9.15;7.80;;;;;;;;;;5010047;28;20181;-70
2022/06/16 05:57:01;;;;;;;8.93;8.07;;;;;;;;;;5010111;28;20113;-71
2022/06/16 05:59:27;;;;;;;8.85;8.05;;;;;;;;;;5024165;28;20046;-71
2022/06/16 06:01:53;;;;;;;8.63;7.82;;;;;;;;;;5005706;28;20083;-71
2022/06/16 06:04:19;;;;;;;7.88;7.10;;;;;;;;;;5014830;28;20056;-71
2022/06/16 06:06:46;;;;;;;9.05;7.70;;;;;;;;;;5004406;28;20057;-71
2022/06/16 06:17:31;;;;;;;8.02;7.43;;;;;;;;;;5006896;28;20049;-70
2022/06/16 06:19:57;;;;;;;7.95;7.13;;;;;;;;;;5009709;28;20033;-71
2022/06/16 06:22:24;;;;;;;7.97;6.97;;;;;;;;;;5032078;28;20389;-71
2022/06/16 06:25:11;;;;;;;7.73;7.03;;;;;;;;;;5015251;28;20053;-71
2022/06/16 06:27:43;;;;;;;8.68;7.30;;;;;;;;;;5033866;28;20044;-71
2022/06/16 06:30:09;;;;;;;7.72;7.03;;;;;;;;;;5017039;28;20125;-72
2022/06/16 06:32:35;;;;;;;8.90;7.35;;;;;;;;;;5010968;28;20492;-71
2022/06/16 06:35:01;;;;;;;9.35;7.13;;;;;;;;;;5009283;28;20070;-71
2022/06/16 06:37:27;;;;;;;7.15;6.57;;;;;;;;;;5013101;28;20089;-71
2022/06/16 06:39:54;;;;;;;8.27;7.60;;;;;;;;;;5015093;28;20033;-71
2022/06/16 06:42:20;;;;;;;8.20;7.50;;;;;;;;;;5010160;28;20501;-71
2022/06/16 06:44:46;;;;;;;8.20;7.50;;;;;;;;;;4998981;28;20149;-71
2022/06/16 06:47:19;;;;;;;7.72;7.13;;;;;;;;;;5017522;28;20037;-71
2022/06/16 06:49:45;;;;;;;7.40;6.75;;;;;;;;;;5009701;28;20049;-71
2022/06/16 06:52:12;;;;;;;7.53;6.82;;;;;;;;;;5006928;28;20038;-71
2022/06/16 06:54:37;;;;;;;7.40;6.68;;;;;;;;;;5014902;28;20038;-71
2022/06/16 06:57:04;;;;;;;6.50;6.00;;;;;;;;;;5010223;28;20091;-71
2022/06/16 06:59:29;;;;;;;8.52;6.30;;;;;;;;;;5009479;28;20409;-71
2022/06/16 07:01:55;;;;;;;7.63;6.60;;;;;;;;;;5013545;28;20683;-71
2022/06/16 07:04:21;;;;;;;7.25;6.50;;;;;;;;;;5011952;28;20037;-71
2022/06/16 07:06:47;;;;;;;7.20;6.60;;;;;;;;;;5016954;28;20046;-71
2022/06/16 07:09:16;;;;;;;7.68;6.85;;;;;;;;;;5009305;28;20030;-71
2022/06/16 07:11:41;;;;;;;7.45;6.85;;;;;;;;;;5009315;28;20535;-71
2022/06/16 07:14:08;;;;;;;7.22;6.57;;;;;;;;;;5016299;28;20061;-71
2022/06/16 07:16:35;;;;;;;10.43;6.65;;;;;;;;;;5009060;28;20108;-71
2022/06/16 07:19:00;;;;;;;8.80;7.43;;;;;;;;;;5008399;28;20072;-71
2022/06/16 07:21:26;;;;;;;7.30;6.72;;;;;;;;;;5007712;28;20033;-71
2022/06/16 07:23:53;;;;;;;7.07;6.38;;;;;;;;;;5015690;28;20038;-71
2022/06/16 07:26:19;;;;;;;7.38;6.80;;;;;;;;;;5008914;28;20092;-71
2022/06/16 07:28:47;;;;;;;7.32;6.72;;;;;;;;;;5008997;28;20069;-71
2022/06/16 07:31:13;;;;;;;8.10;6.60;;;;;;;;;;5015094;28;20026;-71
2022/06/16 07:33:39;;;;;;;6.68;6.18;;;;;;;;;;5012972;28;20042;-71
2022/06/16 07:36:05;;;;;;;10.48;6.53;;;;;;;;;;5009129;28;20025;-71
2022/06/16 07:38:30;;;;;;;7.15;6.60;;;;;;;;;;5010785;28;20041;-71
2022/06/16 07:43:41;;;;;;;7.53;6.80;;;;;;;;;;5008364;28;20032;-71
2022/06/16 07:46:07;;;;;;;7.68;6.95;;;;;;;;;;5005995;28;20038;-71
2022/06/16 07:48:33;;;;;;;8.43;6.40;;;;;;;;;;5012448;28;20037;-71
2022/06/16 07:50:58;;;;;;;7.20;6.05;;;;;;;;;;5012147;28;20524;-71
2022/06/16 07:53:24;;;;;;;7.72;7.00;;;;;;;;;;5007430;28;20095;-71
2022/06/16 07:55:49;;;;;;;9.48;6.57;;;;;;;;;;5013146;28;20056;-71
2022/06/16 07:58:15;;;;;;;7.25;6.55;;;;;;;;;;5010631;28;20109;-71
2022/06/16 08:00:40;;;;;;;7.05;6.45;;;;;;;;;;5008011;28;20034;-71
2022/06/16 08:03:06;;;;;;;6.70;6.20;;;;;;;;;;5006927;28;20041;-71
2022/06/16 08:05:32;;;;;;;9.70;6.80;;;;;;;;;;5010280;28;20069;-71
2022/06/16 08:07:58;;;;;;;7.32;6.65;;;;;;;;;;5013525;28;20076;-71
2022/06/16 08:10:28;;;;;;;6.22;5.72;;;;;;;;;;5006326;28;20073;-71
2022/06/16 08:12:54;;;;;;;6.90;6.30;;;;;;;;;;5006342;28;20117;-70
2022/06/16 08:15:20;;;;;;;6.60;5.93;;;;;;;;;;5010630;28;20041;-71
2022/06/16 08:17:49;;;;;;;7.00;6.40;;;;;;;;;;5009069;28;20034;-71
2022/06/16 08:20:14;;;;;;;7.28;6.63;;;;;;;;;;5006248;28;20041;-70
2022/06/16 08:22:40;;;;;;;6.68;6.18;;;;;;;;;;5009207;28;20034;-70
2022/06/16 08:25:07;;;;;;;7.32;6.30;;;;;;;;;;5009937;28;20037;-71
2022/06/16 08:27:36;;;;;;;11.95;6.43;;;;;;;;;;5006395;28;20037;-70
2022/06/16 08:30:05;;;;;;;6.47;5.97;;;;;;;;;;5020625;28;20501;-71
2022/06/16 08:32:31;;;;;;;6.55;6.03;;;;;;;;;;5012756;28;20061;-71
2022/06/16 08:34:56;;;;;;;7.25;5.70;;;;;;;;;;5005966;28;20062;-70
2022/06/16 08:37:23;;;;;;;7.10;5.75;;;;;;;;;;5005870;28;20038;-70
2022/06/16 08:39:49;;;;;;;6.50;5.90;;;;;;;;;;5005539;28;20029;-71
2022/06/16 08:42:20;;;;;;;6.60;5.88;;;;;;;;;;5010122;28;20045;-70
2022/06/16 08:45:21;;;;;;;6.50;5.90;;;;;;;;;;5004929;28;20030;-71
2022/06/16 08:48:10;;;;;;;6.80;6.10;;;;;;;;;;5004865;28;20057;-71
2022/06/16 08:50:53;;;;;;;6.32;5.72;;;;;;;;;;5009830;28;20034;-71
2022/06/16 08:53:24;;;;;;;6.80;6.07;;;;;;;;;;5001621;28;20687;-71
2022/06/16 08:56:22;;;;;;;6.03;5.45;;;;;;;;;;5005511;28;20069;-71
2022/06/16 08:58:58;;;;;;;6.95;6.35;;;;;;;;;;5009420;28;20112;-70
2022/06/16 09:01:34;;;;;;;5.97;5.47;;;;;;;;;;5008127;28;20061;-71
2022/06/16 09:04:10;;;;;;;6.13;5.60;;;;;;;;;;5005019;28;20128;-70
2022/06/16 09:06:47;;;;;;;6.47;5.63;;;;;;;;;;5004842;28;20395;-71
2022/06/16 09:12:31;;;;;;;9.93;5.60;;;;;;;;;;5004062;28;20447;-71
2022/06/16 09:15:11;;;;;;;6.45;5.65;;;;;;;;;;5005234;28;20041;-70
2022/06/16 09:17:51;;;;;;;6.32;5.72;;;;;;;;;;5005352;28;20038;-70
2022/06/16 09:20:46;;;;;;;7.43;5.45;;;;;;;;;;5009324;28;20600;-71
2022/06/16 09:23:25;;;;;;;7.30;5.30;;;;;;;;;;4985769;28;20046;-71
2022/06/16 09:26:06;;;;;;;5.95;5.50;;;;;;;;;;5008850;28;20115;-71
2022/06/16 09:28:40;;;;;;;6.82;6.07;;;;;;;;;;5012211;28;20054;-71
2022/06/16 09:31:14;;;;;;;8.05;5.65;;;;;;;;;;5006048;28;20097;-71
2022/06/16 09:33:50;;;;;;;6.35;5.10;;;;;;;;;;5003209;28;20041;-71
2022/06/16 09:36:23;;;;;;;6.22;4.68;;;;;;;;;;5012647;28;20041;-71
2022/06/16 09:39:00;;;;;;;5.90;5.25;;;;;;;;;;5006624;28;20034;-71
2022/06/16 09:44:21;;;;;;;8.38;4.90;;;;;;;;;;5005939;28;20046;-70
2022/06/16 09:46:51;;;;;;;5.63;5.13;;;;;;;;;;5009587;28;20058;-71
2022/06/16 09:49:25;;;;;;;6.13;5.57;;;;;;;;;;5005772;28;20034;-70
2022/06/16 09:52:00;;;;;;;5.95;5.25;;;;;;;;;;5005173;28;20498;-71
2022/06/16 09:54:49;;;;;;;10.38;6.28;;;;;;;;;;5007836;28;20065;-71
2022/06/16 09:57:28;;;;;;;6.95;5.90;;;;;;;;;;5014914;28;20034;-71
2022/06/16 10:00:00;;;;;;;7.18;5.88;;;;;;;;;;5012889;28;20061;-71
2022/06/16 10:02:33;;;;;;;8.65;5.88;;;;;;;;;;5009021;28;20113;-70
2022/06/16 10:05:00;;;;;;;5.93;5.40;;;;;;;;;;5011264;28;20049;-70
2022/06/16 10:07:32;;;;;;;7.18;5.72;;;;;;;;;;5016035;28;20022;-70
2022/06/16 10:10:19;;;;;;;6.63;5.28;;;;;;;;;;5008319;28;20038;-70
2022/06/16 10:13:18;;;;;;;6.18;5.28;;;;;;;;;;5011134;28;20049;-70
2022/06/16 10:15:52;;;;;;;7.35;5.65;;;;;;;;;;4999717;28;20041;-69
2022/06/16 10:18:18;;;;;;;9.30;5.25;;;;;;;;;;5007890;28;20053;-69
2022/06/16 10:20:45;;;;;;;6.05;5.45;;;;;;;;;;5009984;28;20574;-69
2022/06/16 10:23:27;;;;;;;6.15;5.55;;;;;;;;;;5015002;28;20038;-70
2022/06/16 10:26:03;;;;;;;6.50;5.90;;;;;;;;;;5008890;28;20124;-72
2022/06/16 10:28:34;;;;;;;7.40;5.82;;;;;;;;;;5006358;28;20405;-70
2022/06/16 10:31:02;;;;;;;8.82;6.20;;;;;;;;;;5010710;28;20893;-70
2022/06/16 10:33:34;;;;;;;6.88;5.97;;;;;;;;;;5008531;28;20049;-70
2022/06/16 10:36:23;;;;;;;8.32;5.43;;;;;;;;;;5007963;28;20820;-70
2022/06/16 10:39:04;;;;;;;6.97;5.63;;;;;;;;;;5013965;28;20038;-73
2022/06/16 10:41:43;;;;;;;7.57;5.50;;;;;;;;;;5011737;28;20088;-74
2022/06/16 10:44:13;;;;;;;;;;;;;;;;;;5008987;28;20037;-73
2022/06/16 10:46:50;;;;;;;5.55;5.00;;;;;;;;;;5014257;28;19917;-73
2022/06/16 10:49:22;;;;;;;6.07;5.50;;;;;;;;;;5008714;28;20042;-72
2022/06/16 10:51:52;;;;;;;5.65;5.15;;;;;;;;;;5006245;28;20034;-72
2022/06/16 10:54:27;;;;;;;6.10;5.50;;;;;;;;;;5015835;28;20085;-73
2022/06/16 10:57:05;;;;;;;6.10;5.50;;;;;;;;;;5010263;28;20041;-74
2022/06/16 10:59:36;;;;;;;7.13;5.80;;;;;;;;;;5008560;28;20685;-72
2022/06/16 11:02:15;;;;;;;5.93;5.43;;;;;;;;;;5011168;28;20072;-73
2022/06/16 11:04:43;;;;;;;6.10;5.60;;;;;;;;;;5012735;28;20062;-72
2022/06/16 11:07:17;;;;;;;11.90;5.88;;;;;;;;;;5007683;28;20091;-72
2022/06/16 11:09:44;;;;;;;7.40;5.57;;;;;;;;;;5006239;28;20560;-73
2022/06/16 11:12:19;;;;;;;5.95;5.45;;;;;;;;;;5013924;28;20490;-74
2022/06/16 11:14:48;;;;;;;8.52;6.30;;;;;;;;;;5008650;28;20072;-73
2022/06/16 11:17:21;;;;;;;8.70;5.82;;;;;;;;;;5007875;28;20033;-75
2022/06/16 11:20:10;;;;;;;6.00;5.50;;;;;;;;;;5006976;28;20476;-72
2022/06/16 11:22:45;;;;;;;5.75;5.10;;;;;;;;;;4982945;28;20065;-75
2022/06/16 11:25:26;;;;;;;6.78;5.65;;;;;;;;;;5006920;28;20108;-74
2022/06/16 11:28:01;;;;;;;5.68;5.18;;;;;;;;;;5007053;28;20046;-74
2022/06/16 11:30:32;;;;;;;6.15;5.53;;;;;;;;;;5003261;28;20113;-74
2022/06/16 11:32:59;;;;;;;6.53;5.40;;;;;;;;;;5008606;28;20656;-75
2022/06/16 11:35:56;;;;;;;8.02;5.40;;;;;;;;;;5007062;28;20410;-73
2022/06/16 11:38:48;;;;;;;7.35;5.40;;;;;;;;;;5003276;28;20124;-73
2022/06/16 11:41:15;;;;;;;6.10;5.60;;;;;;;;;;5011745;28;20034;-73
2022/06/16 11:43:55;;;;;;;6.22;5.20;;;;;;;;;;5007941;28;20117;-75
2022/06/16 11:46:32;;;;;;;6.65;5.35;;;;;;;;;;5003242;28;20038;-74
2022/06/16 11:49:32;;;;;;;7.47;5.80;;;;;;;;;;5009588;28;20099;-73
2022/06/16 11:52:30;;;;;;;6.15;5.32;;;;;;;;;;5007136;28;20115;-74
2022/06/16 11:55:21;;;;;;;6.22;5.70;;;;;;;;;;5003936;28;20045;-72
2022/06/16 11:58:12;;;;;;;7.43;5.63;;;;;;;;;;5008925;28;20824;-74
2022/06/16 12:00:47;;;;;;;5.70;5.30;;;;;;;;;;5004611;28;20080;-73
2022/06/16 12:03:12;;;;;;;6.10;5.30;;;;;;;;;;5005417;28;20038;-73
2022/06/16 12:05:51;;;;;;;9.63;5.13;;;;;;;;;;5011972;28;20040;-73
2022/06/16 12:08:38;;;;;;;5.60;5.10;;;;;;;;;;5004899;28;20438;-74
2022/06/16 12:11:16;;;;;;;8.45;5.93;;;;;;;;;;5006549;28;20037;-74
2022/06/16 12:14:23;;;;;;;7.45;5.55;;;;;;;;;;5006726;28;20030;-74
2022/06/16 12:17:06;;;;;;;6.30;5.50;;;;;;;;;;4965214;28;20042;-74
2022/06/16 12:19:57;;;;;;;6.10;5.50;;;;;;;;;;5002174;28;20122;-74
2022/06/16 12:22:38;;;;;;;8.02;5.32;;;;;;;;;;5008679;28;20026;-74
2022/06/16 12:25:15;;;;;;;6.47;5.28;;;;;;;;;;5008353;28;20033;-71
2022/06/16 12:28:07;;;;;;;5.53;5.10;;;;;;;;;;5006310;28;20042;-71
2022/06/16 12:30:40;;;;;;;6.07;5.40;;;;;;;;;;5006657;28;20042;-71
2022/06/16 12:33:31;;;;;;;6.05;5.55;;;;;;;;;;5009548;28;20045;-71
2022/06/16 12:36:11;;;;;;;6.07;5.22;;;;;;;;;;4997144;28;20050;-71
2022/06/16 12:38:45;;;;;;;7.35;5.25;;;;;;;;;;5006431;28;20034;-71
2022/06/16 12:41:34;;;;;;;6.72;6.03;;;;;;;;;;5016869;28;20091;-71
2022/06/16 12:44:20;;;;;;;6.13;5.53;;;;;;;;;;5005653;28;20038;-71
2022/06/16 12:47:11;;;;;;;5.65;5.25;;;;;;;;;;5005963;28;20393;-71
2022/06/16 12:49:44;;;;;;;5.93;5.32;;;;;;;;;;4981071;28;20099;-71
2022/06/16 12:52:19;;;;;;;8.07;5.50;;;;;;;;;;5009246;28;20497;-71
2022/06/16 12:54:55;;;;;;;6.07;5.53;;;;;;;;;;5005353;28;20628;-71
2022/06/16 12:57:28;;;;;;;6.57;5.70;;;;;;;;;;5002059;28;20488;-71
2022/06/16 12:59:59;;;;;;;6.60;5.35;;;;;;;;;;5013697;28;20061;-71
2022/06/16 13:02:30;;;;;;;7.80;5.22;;;;;;;;;;5005218;28;20046;-71
2022/06/16 13:04:59;;;;;;;6.20;5.70;;;;;;;;;;5007263;28;20065;-71
2022/06/16 13:07:28;;;;;;;5.97;5.50;;;;;;;;;;5009759;28;20049;-71
2022/06/16 13:09:54;;;;;;;6.38;5.53;;;;;;;;;;5004729;28;20665;-72
2022/06/16 13:12:29;;;;;;;6.57;5.53;;;;;;;;;;5004645;28;20030;-71
2022/06/16 13:15:00;;;;;;;6.15;5.60;;;;;;;;;;5007315;28;20046;-72
2022/06/16 13:17:29;;;;;;;5.60;5.10;;;;;;;;;;5005690;28;20532;-71
2022/06/16 13:20:00;;;;;;;5.82;5.43;;;;;;;;;;5007663;28;20045;-72
2022/06/16 13:22:33;;;;;;;5.80;5.28;;;;;;;;;;5012434;28;20709;-72
2022/06/16 13:25:04;;;;;;;6.97;5.20;;;;;;;;;;5005069;28;20758;-72
2022/06/16 13:27:38;;;;;;;6.43;5.80;;;;;;;;;;5003631;28;20079;-73
2022/06/16 13:30:09;;;;;;;5.97;5.57;;;;;;;;;;5014115;28;20045;-72
2022/06/16 13:32:41;;;;;;;7.47;5.32;;;;;;;;;;5009637;28;20113;-73
2022/06/16 13:35:13;;;;;;;8.05;5.55;;;;;;;;;;5009435;28;20026;-73
2022/06/16 13:37:42;;;;;;;6.50;5.35;;;;;;;;;;5009714;28;20064;-73
2022/06/16 13:40:07;;;;;;;;;;;;;;;;;;5018090;28;20520;-71
2022/06/16 13:42:56;;;;;;;5.60;5.10;;;;;;;;;;5009100;28;19948;-72
2022/06/16 13:45:30;;;;;;;5.45;5.05;;;;;;;;;;5006079;28;20123;-72
2022/06/16 13:48:16;;;;;;;6.10;5.50;;;;;;;;;;5014810;28;20045;-72
2022/06/16 13:50:59;;;;;;;6.07;5.47;;;;;;;;;;5008864;28;20088;-72
2022/06/16 13:53:31;;;;;;;8.52;5.35;;;;;;;;;;5008882;28;20520;-72
2022/06/16 13:55:59;;;;;;;5.63;5.20;;;;;;;;;;5008537;28;20563;-72
2022/06/16 13:58:31;;;;;;;6.70;5.70;;;;;;;;;;5015047;28;20506;-72
2022/06/16 14:01:19;;;;;;;5.53;5.13;;;;;;;;;;5006132;28;20124;-72
2022/06/16 14:03:52;;;;;;;6.80;5.20;;;;;;;;;;5017159;28;20029;-72
2022/06/16 14:06:23;;;;;;;6.00;5.20;;;;;;;;;;5009041;28;20029;-72
2022/06/16 14:08:52;;;;;;;5.50;4.90;;;;;;;;;;5014377;28;20037;-74
2022/06/16 14:11:33;;;;;;;7.18;4.93;;;;;;;;;;5015844;28;20030;-74
2022/06/16 14:14:04;;;;;;;5.03;4.70;;;;;;;;;;5010551;28;20045;-73
2022/06/16 14:16:39;;;;;;;5.78;5.00;;;;;;;;;;5008723;28;20088;-73
2022/06/16 14:19:05;;;;;;;6.70;4.95;;;;;;;;;;5012521;28;20037;-74
2022/06/16 14:21:46;;;;;;;7.68;5.00;;;;;;;;;;5010699;28;20053;-74
2022/06/16 14:24:41;;;;;;;5.82;5.18;;;;;;;;;;5010521;28;20117;-74
2022/06/16 14:27:22;;;;;;;5.78;5.25;;;;;;;;;;5011700;28;20034;-73
2022/06/16 14:29:49;;;;;;;7.20;4.65;;;;;;;;;;5015180;28;20068;-73
2022/06/16 14:32:24;;;;;;;5.85;5.25;;;;;;;;;;5010229;28;20073;-73
2022/06/16 14:35:02;;;;;;;6.22;5.03;;;;;;;;;;5020360;28;20928;-72
2022/06/16 14:37:36;;;;;;;7.00;5.35;;;;;;;;;;5017394;28;20033;-72
2022/06/16 14:40:14;;;;;;;8.25;5.30;;;;;;;;;;5021035;28;20108;-72
2022/06/16 14:42:43;;;;;;;6.60;5.32;;;;;;;;;;5012130;28;20249;-73
2022/06/16 14:45:47;;;;;;;9.85;5.63;;;;;;;;;;5017067;28;20045;-73
2022/06/16 14:48:29;;;;;;;6.40;5.80;;;;;;;;;;4953675;28;20047;-73
2022/06/16 14:50:59;;;;;;;6.75;5.55;;;;;;;;;;4937779;29;20051;-76
2022/06/16 14:53:35;;;;;;;8.85;5.72;;;;;;;;;;4954062;28;20039;-76
2022/06/16 14:56:16;;;;;;;5.57;5.18;;;;;;;;;;4932701;28;20556;-76
2022/06/16 14:59:02;;;;;;;5.90;5.30;;;;;;;;;;4946630;28;20047;-76
2022/06/16 15:01:35;;;;;;;5.50;5.07;;;;;;;;;;4956314;28;20047;-73
2022/06/16 15:04:05;;;;;;;7.43;5.30;;;;;;;;;;4948324;28;20983;-73
2022/06/16 15:06:37;;;;;;;8.27;5.10;;;;;;;;;;4941739;28;20130;-72
2022/06/16 15:09:04;;;;;;;5.97;5.28;;;;;;;;;;4952173;28;20804;-72
2022/06/16 15:11:32;;;;;;;5.85;5.35;;;;;;;;;;4948816;29;20482;-72
2022/06/16 15:14:02;;;;;;;6.37;5.23;;;;;;;;;;4947815;28;20095;-72
2022/06/16 15:19:24;;;;;;;8.70;6.07;;;;;;;;;;4943956;28;20157;-72
2022/06/16 15:21:51;;;;;;;5.85;5.28;;;;;;;;;;4956091;28;20043;-73
2022/06/16 15:24:16;;;;;;;7.13;5.35;;;;;;;;;;4956209;28;20114;-72
2022/06/16 15:26:42;;;;;;;6.40;5.80;;;;;;;;;;5007571;28;20180;-72
2022/06/16 15:29:13;;;;;;;6.35;5.75;;;;;;;;;;5010929;28;20033;-73
2022/06/16 15:31:58;;;;;;;7.03;6.53;;;;;;;;;;5009424;28;20041;-73
2022/06/16 15:37:10;;;;;;;8.30;7.35;;;;;;;;;;5005141;28;20129;-72
2022/06/16 15:39:48;;;;;;;7.85;7.25;;;;;;;;;;5017501;28;20096;-73
2022/06/16 15:42:19;;;;;;;8.48;7.70;;;;;;;;;;5007366;28;20061;-72
2022/06/16 15:44:48;;;;;;;7.95;7.35;;;;;;;;;;5007201;28;20061;-72
2022/06/16 15:47:17;;;;;;;7.07;6.50;;;;;;;;;;5013241;28;20120;-72
2022/06/16 15:50:05;;;;;;;9.50;7.75;;;;;;;;;;5014286;28;20039;-72
2022/06/16 15:52:46;;;;;;;8.15;7.15;;;;;;;;;;5007354;28;20929;-72
2022/06/16 15:55:22;;;;;;;7.97;7.15;;;;;;;;;;5006186;28;20123;-72